sensor_id;sensor_type;location;lat;lon;timestamp;temperature;humidity
3648;DHT22;1840;48.892;15.312;2022-09-09T00:01:54;10.80;99.90
3648;DHT22;1840;48.892;15.312;2022-09-09T00:04:29;10.80;99.90
3648;DHT22;1840;48.892;15.312;2022-09-09T00:07:05;10.80;99.90
3648;DHT22;1840;48.892;15.312;2022-09-09T00:09:40;10.80;99.90
3648;DHT22;1840;48.892;15.312;2022-09-09T00:12:18;10.70;99.90
3648;DHT22;1840;48.892;15.312;2022-09-09T00:14:52;10.70;99.90
3648;DHT22;1840;48.892;15.312;2022-09-09T00:17:33;10.70;99.90
3648;DHT22;1840;48.892;15.312;2022-09-09T00:20:10;10.70;99.90
3648;DHT22;1840;48.892;15.312;2022-09-09T00:22:43;10.70;99.90
3648;DHT22;1840;48.892;15.312;2022-09-09T00:25:17;10.70;99.90
3648;DHT22;1840;48.892;15.312;2022-09-09T00:27:49;10.70;99.90
3648;DHT22;1840;48.892;15.312;2022-09-09T00:30:20;10.70;99.90
3648;DHT22;1840;48.892;15.312;2022-09-09T00:32:53;10.70;99.90
3648;DHT22;1840;48.892;15.312;2022-09-09T00:35:28;10.70;99.90
3648;DHT22;1840;48.892;15.312;2022-09-09T00:38:01;10.50;99.90
3648;DHT22;1840;48.892;15.312;2022-09-09T00:40:33;10.50;99.90
3648;DHT22;1840;48.892;15.312;2022-09-09T00:43:19;10.50;99.90
3648;DHT22;1840;48.892;15.312;2022-09-09T00:46:21;10.50;99.90
3648;DHT22;1840;48.892;15.312;2022-09-09T00:49:00;10.60;99.90
3648;DHT22;1840;48.892;15.312;2022-09-09T00:51:41;10.60;99.90
3648;DHT22;1840;48.892;15.312;2022-09-09T00:54:25;10.50;99.90
3648;DHT22;1840;48.892;15.312;2022-09-09T00:57:07;10.50;99.90
3648;DHT22;1840;48.892;15.312;2022-09-09T00:59:47;10.40;99.90
3648;DHT22;1840;48.892;15.312;2022-09-09T01:02:25;10.30;99.90
3648;DHT22;1840;48.892;15.312;2022-09-09T01:05:02;10.30;99.90
3648;DHT22;1840;48.892;15.312;2022-09-09T01:07:33;10.20;99.90
3648;DHT22;1840;48.892;15.312;2022-09-09T01:10:04;10.10;99.90
3648;DHT22;1840;48.892;15.312;2022-09-09T01:12:38;10.20;99.90
3648;DHT22;1840;48.892;15.312;2022-09-09T01:15:10;10.10;99.90
3648;DHT22;1840;48.892;15.312;2022-09-09T01:17:49;10.10;99.90
3648;DHT22;1840;48.892;15.312;2022-09-09T01:20:23;10.00;99.90
3648;DHT22;1840;48.892;15.312;2022-09-09T01:23:14;9.80;99.90
3648;DHT22;1840;48.892;15.312;2022-09-09T01:26:11;9.80;99.90
3648;DHT22;1840;48.892;15.312;2022-09-09T01:28:43;9.90;99.90
3648;DHT22;1840;48.892;15.312;2022-09-09T01:31:16;9.90;99.90
3648;DHT22;1840;48.892;15.312;2022-09-09T01:33:45;9.90;99.90
3648;DHT22;1840;48.892;15.312;2022-09-09T01:36:21;9.80;99.90
3648;DHT22;1840;48.892;15.312;2022-09-09T01:38:51;9.70;99.90
3648;DHT22;1840;48.892;15.312;2022-09-09T01:41:20;9.80;99.90
3648;DHT22;1840;48.892;15.312;2022-09-09T01:43:49;9.80;99.90
3648;DHT22;1840;48.892;15.312;2022-09-09T01:46:21;9.80;99.90
3648;DHT22;1840;48.892;15.312;2022-09-09T01:48:51;9.80;99.90
3648;DHT22;1840;48.892;15.312;2022-09-09T01:51:20;9.70;99.90
3648;DHT22;1840;48.892;15.312;2022-09-09T01:53:48;9.80;99.90
3648;DHT22;1840;48.892;15.312;2022-09-09T01:56:30;9.80;99.90
3648;DHT22;1840;48.892;15.312;2022-09-09T01:59:14;9.80;99.90
3648;DHT22;1840;48.892;15.312;2022-09-09T02:01:57;9.80;99.90
3648;DHT22;1840;48.892;15.312;2022-09-09T02:04:37;9.90;99.90
3648;DHT22;1840;48.892;15.312;2022-09-09T02:07:11;9.70;99.90
3648;DHT22;1840;48.892;15.312;2022-09-09T02:09:48;9.50;99.90
3648;DHT22;1840;48.892;15.312;2022-09-09T02:12:21;9.50;99.90
3648;DHT22;1840;48.892;15.312;2022-09-09T02:14:56;9.40;99.90
3648;DHT22;1840;48.892;15.312;2022-09-09T02:17:29;9.20;99.90
3648;DHT22;1840;48.892;15.312;2022-09-09T02:20:03;9.20;99.90
3648;DHT22;1840;48.892;15.312;2022-09-09T02:22:33;9.20;99.90
3648;DHT22;1840;48.892;15.312;2022-09-09T02:25:05;9.30;99.90
3648;DHT22;1840;48.892;15.312;2022-09-09T02:27:36;9.40;99.90
3648;DHT22;1840;48.892;15.312;2022-09-09T02:30:05;9.40;99.90
3648;DHT22;1840;48.892;15.312;2022-09-09T02:32:34;9.40;99.90
3648;DHT22;1840;48.892;15.312;2022-09-09T02:35:07;9.40;99.90
3648;DHT22;1840;48.892;15.312;2022-09-09T02:37:38;9.30;99.90
3648;DHT22;1840;48.892;15.312;2022-09-09T02:40:08;9.40;99.90
3648;DHT22;1840;48.892;15.312;2022-09-09T02:42:40;9.40;99.90
3648;DHT22;1840;48.892;15.312;2022-09-09T02:45:09;9.20;99.90
3648;DHT22;1840;48.892;15.312;2022-09-09T02:47:40;9.00;99.90
3648;DHT22;1840;48.892;15.312;2022-09-09T02:50:13;9.00;99.90
3648;DHT22;1840;48.892;15.312;2022-09-09T02:52:52;9.00;99.90
3648;DHT22;1840;48.892;15.312;2022-09-09T02:55:29;9.20;99.90
3648;DHT22;1840;48.892;15.312;2022-09-09T02:58:02;9.20;99.90
3648;DHT22;1840;48.892;15.312;2022-09-09T03:00:33;9.20;99.90
3648;DHT22;1840;48.892;15.312;2022-09-09T03:03:03;9.10;99.90
3648;DHT22;1840;48.892;15.312;2022-09-09T03:05:32;9.00;99.90
3648;DHT22;1840;48.892;15.312;2022-09-09T03:08:00;8.80;99.90
3648;DHT22;1840;48.892;15.312;2022-09-09T03:10:29;8.80;99.90
3648;DHT22;1840;48.892;15.312;2022-09-09T03:12:57;8.90;99.90
3648;DHT22;1840;48.892;15.312;2022-09-09T03:15:27;8.90;99.90
3648;DHT22;1840;48.892;15.312;2022-09-09T03:17:57;8.50;99.90
3648;DHT22;1840;48.892;15.312;2022-09-09T03:20:27;8.30;99.90
3648;DHT22;1840;48.892;15.312;2022-09-09T03:22:56;8.20;99.90
3648;DHT22;1840;48.892;15.312;2022-09-09T03:25:24;8.30;99.90
3648;DHT22;1840;48.892;15.312;2022-09-09T03:27:53;8.30;99.90
3648;DHT22;1840;48.892;15.312;2022-09-09T03:30:21;8.30;99.90
3648;DHT22;1840;48.892;15.312;2022-09-09T03:32:51;8.30;99.90
3648;DHT22;1840;48.892;15.312;2022-09-09T03:35:19;8.10;99.90
3648;DHT22;1840;48.892;15.312;2022-09-09T03:37:48;7.90;99.90
3648;DHT22;1840;48.892;15.312;2022-09-09T03:40:16;7.90;99.90
3648;DHT22;1840;48.892;15.312;2022-09-09T03:42:46;8.10;99.90
3648;DHT22;1840;48.892;15.312;2022-09-09T03:45:15;8.10;99.90
3648;DHT22;1840;48.892;15.312;2022-09-09T03:47:43;8.20;99.90
3648;DHT22;1840;48.892;15.312;2022-09-09T03:50:13;8.00;99.90
3648;DHT22;1840;48.892;15.312;2022-09-09T03:52:41;8.10;99.90
3648;DHT22;1840;48.892;15.312;2022-09-09T03:55:10;8.20;99.90
3648;DHT22;1840;48.892;15.312;2022-09-09T03:57:38;8.30;99.90
3648;DHT22;1840;48.892;15.312;2022-09-09T04:00:08;8.30;99.90
3648;DHT22;1840;48.892;15.312;2022-09-09T04:02:36;8.20;99.90
3648;DHT22;1840;48.892;15.312;2022-09-09T04:05:06;8.20;99.90
3648;DHT22;1840;48.892;15.312;2022-09-09T04:07:36;8.10;99.90
3648;DHT22;1840;48.892;15.312;2022-09-09T04:10:05;8.10;99.90
3648;DHT22;1840;48.892;15.312;2022-09-09T04:12:34;8.10;99.90
3648;DHT22;1840;48.892;15.312;2022-09-09T04:15:02;8.10;99.90
3648;DHT22;1840;48.892;15.312;2022-09-09T04:17:30;8.20;99.90
3648;DHT22;1840;48.892;15.312;2022-09-09T04:20:00;8.00;99.90
3648;DHT22;1840;48.892;15.312;2022-09-09T04:22:28;8.10;99.90
3648;DHT22;1840;48.892;15.312;2022-09-09T04:24:57;8.00;99.90
3648;DHT22;1840;48.892;15.312;2022-09-09T04:27:25;8.00;99.90
3648;DHT22;1840;48.892;15.312;2022-09-09T04:29:54;8.00;99.90
3648;DHT22;1840;48.892;15.312;2022-09-09T04:32:24;8.10;99.90
3648;DHT22;1840;48.892;15.312;2022-09-09T04:34:53;8.00;99.90
3648;DHT22;1840;48.892;15.312;2022-09-09T04:37:21;8.00;99.90
3648;DHT22;1840;48.892;15.312;2022-09-09T04:39:51;8.00;99.90
3648;DHT22;1840;48.892;15.312;2022-09-09T04:42:21;8.00;99.90
3648;DHT22;1840;48.892;15.312;2022-09-09T04:44:49;8.10;99.90
3648;DHT22;1840;48.892;15.312;2022-09-09T04:47:17;8.10;99.90
3648;DHT22;1840;48.892;15.312;2022-09-09T04:49:46;8.00;99.90
3648;DHT22;1840;48.892;15.312;2022-09-09T04:52:15;7.90;99.90
3648;DHT22;1840;48.892;15.312;2022-09-09T04:54:44;7.90;99.90
3648;DHT22;1840;48.892;15.312;2022-09-09T04:57:12;7.80;99.90
3648;DHT22;1840;48.892;15.312;2022-09-09T04:59:46;7.90;99.90
3648;DHT22;1840;48.892;15.312;2022-09-09T05:02:14;8.00;99.90
3648;DHT22;1840;48.892;15.312;2022-09-09T05:04:43;8.10;99.90
3648;DHT22;1840;48.892;15.312;2022-09-09T05:07:11;8.10;99.90
3648;DHT22;1840;48.892;15.312;2022-09-09T05:09:40;8.30;99.90
3648;DHT22;1840;48.892;15.312;2022-09-09T05:12:08;8.30;99.90
3648;DHT22;1840;48.892;15.312;2022-09-09T05:14:36;8.30;99.90
3648;DHT22;1840;48.892;15.312;2022-09-09T05:17:06;8.50;99.90
3648;DHT22;1840;48.892;15.312;2022-09-09T05:19:34;8.60;99.90
3648;DHT22;1840;48.892;15.312;2022-09-09T05:22:02;8.70;99.90
3648;DHT22;1840;48.892;15.312;2022-09-09T05:24:31;8.80;99.90
3648;DHT22;1840;48.892;15.312;2022-09-09T05:27:00;8.70;99.90
3648;DHT22;1840;48.892;15.312;2022-09-09T05:29:29;8.80;99.90
3648;DHT22;1840;48.892;15.312;2022-09-09T05:32:00;8.80;99.90
3648;DHT22;1840;48.892;15.312;2022-09-09T05:34:29;9.00;99.90
3648;DHT22;1840;48.892;15.312;2022-09-09T05:36:58;9.20;99.90
3648;DHT22;1840;48.892;15.312;2022-09-09T05:39:26;9.20;99.90
3648;DHT22;1840;48.892;15.312;2022-09-09T05:41:54;9.40;99.90
3648;DHT22;1840;48.892;15.312;2022-09-09T05:44:22;9.50;99.90
3648;DHT22;1840;48.892;15.312;2022-09-09T05:46:54;9.40;99.90
3648;DHT22;1840;48.892;15.312;2022-09-09T05:49:22;9.60;99.90
3648;DHT22;1840;48.892;15.312;2022-09-09T05:51:52;9.90;99.90
3648;DHT22;1840;48.892;15.312;2022-09-09T05:54:20;10.10;99.90
3648;DHT22;1840;48.892;15.312;2022-09-09T05:56:48;10.20;99.90
3648;DHT22;1840;48.892;15.312;2022-09-09T05:59:19;10.40;99.90
3648;DHT22;1840;48.892;15.312;2022-09-09T06:01:47;10.50;99.90
3648;DHT22;1840;48.892;15.312;2022-09-09T06:04:15;10.40;99.90
3648;DHT22;1840;48.892;15.312;2022-09-09T06:06:43;10.60;99.90
3648;DHT22;1840;48.892;15.312;2022-09-09T06:09:13;10.70;99.90
3648;DHT22;1840;48.892;15.312;2022-09-09T06:11:42;10.60;99.90
3648;DHT22;1840;48.892;15.312;2022-09-09T06:14:10;10.60;99.90
3648;DHT22;1840;48.892;15.312;2022-09-09T06:16:38;10.80;99.90
3648;DHT22;1840;48.892;15.312;2022-09-09T06:19:10;10.80;99.90
3648;DHT22;1840;48.892;15.312;2022-09-09T06:21:39;11.20;99.90
3648;DHT22;1840;48.892;15.312;2022-09-09T06:24:08;11.30;99.90
3648;DHT22;1840;48.892;15.312;2022-09-09T06:26:39;11.50;99.90
3648;DHT22;1840;48.892;15.312;2022-09-09T06:29:09;11.60;99.90
3648;DHT22;1840;48.892;15.312;2022-09-09T06:31:37;11.60;99.90
3648;DHT22;1840;48.892;15.312;2022-09-09T06:34:07;11.60;99.90
3648;DHT22;1840;48.892;15.312;2022-09-09T06:36:36;12.00;99.90
3648;DHT22;1840;48.892;15.312;2022-09-09T06:39:06;12.40;99.90
3648;DHT22;1840;48.892;15.312;2022-09-09T06:41:42;12.60;99.90
3648;DHT22;1840;48.892;15.312;2022-09-09T06:44:10;12.40;99.90
3648;DHT22;1840;48.892;15.312;2022-09-09T06:46:39;12.80;99.90
3648;DHT22;1840;48.892;15.312;2022-09-09T06:49:08;12.70;99.90
3648;DHT22;1840;48.892;15.312;2022-09-09T06:51:37;13.10;99.90
3648;DHT22;1840;48.892;15.312;2022-09-09T06:54:10;13.20;99.90
3648;DHT22;1840;48.892;15.312;2022-09-09T06:56:44;13.40;99.90
3648;DHT22;1840;48.892;15.312;2022-09-09T06:59:12;13.70;99.90
3648;DHT22;1840;48.892;15.312;2022-09-09T07:01:42;14.20;99.90
3648;DHT22;1840;48.892;15.312;2022-09-09T07:04:12;14.40;99.90
3648;DHT22;1840;48.892;15.312;2022-09-09T07:06:41;14.50;99.90
3648;DHT22;1840;48.892;15.312;2022-09-09T07:09:11;14.50;99.90
3648;DHT22;1840;48.892;15.312;2022-09-09T07:11:41;14.50;99.90
3648;DHT22;1840;48.892;15.312;2022-09-09T07:14:11;14.20;99.90
3648;DHT22;1840;48.892;15.312;2022-09-09T07:16:41;14.30;99.90
3648;DHT22;1840;48.892;15.312;2022-09-09T07:19:09;14.60;99.90
3648;DHT22;1840;48.892;15.312;2022-09-09T07:21:38;15.00;99.90
3648;DHT22;1840;48.892;15.312;2022-09-09T07:24:07;14.90;99.90
3648;DHT22;1840;48.892;15.312;2022-09-09T07:26:38;15.00;99.90
3648;DHT22;1840;48.892;15.312;2022-09-09T07:29:06;15.00;99.90
3648;DHT22;1840;48.892;15.312;2022-09-09T07:31:39;15.20;99.90
3648;DHT22;1840;48.892;15.312;2022-09-09T07:34:08;15.40;99.90
3648;DHT22;1840;48.892;15.312;2022-09-09T07:36:37;15.30;99.90
3648;DHT22;1840;48.892;15.312;2022-09-09T07:39:07;15.70;99.90
3648;DHT22;1840;48.892;15.312;2022-09-09T07:41:38;15.90;99.90
3648;DHT22;1840;48.892;15.312;2022-09-09T07:44:09;16.00;99.90
3648;DHT22;1840;48.892;15.312;2022-09-09T07:46:39;16.10;99.90
3648;DHT22;1840;48.892;15.312;2022-09-09T07:49:08;16.30;99.90
3648;DHT22;1840;48.892;15.312;2022-09-09T07:51:38;16.50;99.80
3648;DHT22;1840;48.892;15.312;2022-09-09T07:54:09;16.50;99.70
3648;DHT22;1840;48.892;15.312;2022-09-09T07:56:39;16.80;99.90
3648;DHT22;1840;48.892;15.312;2022-09-09T07:59:08;16.90;99.60
3648;DHT22;1840;48.892;15.312;2022-09-09T08:01:39;17.10;99.80
3648;DHT22;1840;48.892;15.312;2022-09-09T08:04:09;17.10;99.70
3648;DHT22;1840;48.892;15.312;2022-09-09T08:06:44;17.30;99.70
3648;DHT22;1840;48.892;15.312;2022-09-09T08:09:13;17.50;99.50
3648;DHT22;1840;48.892;15.312;2022-09-09T08:11:42;17.70;98.60
3648;DHT22;1840;48.892;15.312;2022-09-09T08:14:11;17.80;98.20
3648;DHT22;1840;48.892;15.312;2022-09-09T08:16:43;18.00;97.90
3648;DHT22;1840;48.892;15.312;2022-09-09T08:19:11;18.10;97.90
3648;DHT22;1840;48.892;15.312;2022-09-09T08:21:51;18.00;97.90
3648;DHT22;1840;48.892;15.312;2022-09-09T08:24:20;18.00;98.10
3648;DHT22;1840;48.892;15.312;2022-09-09T08:26:49;17.90;97.90
3648;DHT22;1840;48.892;15.312;2022-09-09T08:29:18;17.90;98.30
3648;DHT22;1840;48.892;15.312;2022-09-09T08:31:49;18.00;97.90
3648;DHT22;1840;48.892;15.312;2022-09-09T08:34:18;18.10;98.00
3648;DHT22;1840;48.892;15.312;2022-09-09T08:36:47;18.00;97.50
3648;DHT22;1840;48.892;15.312;2022-09-09T08:39:17;17.90;97.70
3648;DHT22;1840;48.892;15.312;2022-09-09T08:42:27;18.00;97.30
3648;DHT22;1840;48.892;15.312;2022-09-09T08:45:20;17.90;97.10
3648;DHT22;1840;48.892;15.312;2022-09-09T08:48:08;18.00;97.60
3648;DHT22;1840;48.892;15.312;2022-09-09T08:50:38;18.00;97.30
3648;DHT22;1840;48.892;15.312;2022-09-09T08:53:12;18.20;97.70
3648;DHT22;1840;48.892;15.312;2022-09-09T08:55:45;18.20;97.40
3648;DHT22;1840;48.892;15.312;2022-09-09T08:58:17;18.30;97.30
3648;DHT22;1840;48.892;15.312;2022-09-09T09:00:54;18.40;97.40
3648;DHT22;1840;48.892;15.312;2022-09-09T09:03:36;18.40;97.30
3648;DHT22;1840;48.892;15.312;2022-09-09T09:06:19;18.50;97.40
3648;DHT22;1840;48.892;15.312;2022-09-09T09:08:57;18.40;96.10
3648;DHT22;1840;48.892;15.312;2022-09-09T09:11:35;18.40;96.50
3648;DHT22;1840;48.892;15.312;2022-09-09T09:14:08;18.60;96.70
3648;DHT22;1840;48.892;15.312;2022-09-09T09:16:45;18.60;97.00
3648;DHT22;1840;48.892;15.312;2022-09-09T09:19:18;18.80;96.90
3648;DHT22;1840;48.892;15.312;2022-09-09T09:21:54;18.90;96.70
3648;DHT22;1840;48.892;15.312;2022-09-09T09:24:28;18.90;96.30
3648;DHT22;1840;48.892;15.312;2022-09-09T09:27:11;19.00;96.20
3648;DHT22;1840;48.892;15.312;2022-09-09T09:29:40;18.90;96.60
3648;DHT22;1840;48.892;15.312;2022-09-09T09:32:33;18.80;97.00
3648;DHT22;1840;48.892;15.312;2022-09-09T09:35:09;18.90;96.40
3648;DHT22;1840;48.892;15.312;2022-09-09T09:37:40;19.00;96.20
3648;DHT22;1840;48.892;15.312;2022-09-09T09:40:30;19.10;95.90
3648;DHT22;1840;48.892;15.312;2022-09-09T09:43:01;19.10;96.30
3648;DHT22;1840;48.892;15.312;2022-09-09T09:45:41;19.10;96.70
3648;DHT22;1840;48.892;15.312;2022-09-09T09:48:31;19.10;96.60
3648;DHT22;1840;48.892;15.312;2022-09-09T09:51:05;19.20;95.20
3648;DHT22;1840;48.892;15.312;2022-09-09T09:53:36;19.20;95.50
3648;DHT22;1840;48.892;15.312;2022-09-09T09:56:07;19.20;95.50
3648;DHT22;1840;48.892;15.312;2022-09-09T09:58:49;19.20;96.10
3648;DHT22;1840;48.892;15.312;2022-09-09T10:01:22;19.20;96.30
3648;DHT22;1840;48.892;15.312;2022-09-09T10:03:53;19.20;96.20
3648;DHT22;1840;48.892;15.312;2022-09-09T10:06:41;19.20;94.50
3648;DHT22;1840;48.892;15.312;2022-09-09T10:09:21;19.20;94.00
3648;DHT22;1840;48.892;15.312;2022-09-09T10:11:57;19.20;95.30
3648;DHT22;1840;48.892;15.312;2022-09-09T10:14:36;19.20;95.70
3648;DHT22;1840;48.892;15.312;2022-09-09T10:17:16;19.20;95.20
3648;DHT22;1840;48.892;15.312;2022-09-09T10:19:54;19.20;95.30
3648;DHT22;1840;48.892;15.312;2022-09-09T10:22:28;19.20;95.60
3648;DHT22;1840;48.892;15.312;2022-09-09T10:25:22;19.20;95.50
3648;DHT22;1840;48.892;15.312;2022-09-09T10:28:10;19.10;95.70
3648;DHT22;1840;48.892;15.312;2022-09-09T10:30:53;19.20;95.50
3648;DHT22;1840;48.892;15.312;2022-09-09T10:33:32;19.30;94.70
3648;DHT22;1840;48.892;15.312;2022-09-09T10:36:11;19.30;93.70
3648;DHT22;1840;48.892;15.312;2022-09-09T10:38:42;19.40;92.20
3648;DHT22;1840;48.892;15.312;2022-09-09T10:41:18;19.40;92.90
3648;DHT22;1840;48.892;15.312;2022-09-09T10:46:52;19.30;94.70
3648;DHT22;1840;48.892;15.312;2022-09-09T10:49:45;19.40;94.40
3648;DHT22;1840;48.892;15.312;2022-09-09T10:52:23;19.40;94.70
3648;DHT22;1840;48.892;15.312;2022-09-09T10:54:57;19.50;94.80
3648;DHT22;1840;48.892;15.312;2022-09-09T10:57:33;19.50;94.80
3648;DHT22;1840;48.892;15.312;2022-09-09T11:00:05;19.50;94.40
3648;DHT22;1840;48.892;15.312;2022-09-09T11:02:36;19.50;94.40
3648;DHT22;1840;48.892;15.312;2022-09-09T11:05:14;19.50;94.10
3648;DHT22;1840;48.892;15.312;2022-09-09T11:07:48;19.40;93.80
3648;DHT22;1840;48.892;15.312;2022-09-09T11:10:23;19.30;94.10
3648;DHT22;1840;48.892;15.312;2022-09-09T11:12:56;19.40;94.30
3648;DHT22;1840;48.892;15.312;2022-09-09T11:15:31;19.30;94.10
3648;DHT22;1840;48.892;15.312;2022-09-09T11:18:04;19.40;94.50
3648;DHT22;1840;48.892;15.312;2022-09-09T11:20:34;19.40;94.10
3648;DHT22;1840;48.892;15.312;2022-09-09T11:23:05;19.40;94.40
3648;DHT22;1840;48.892;15.312;2022-09-09T11:25:43;19.40;94.00
3648;DHT22;1840;48.892;15.312;2022-09-09T11:28:35;19.30;94.00
3648;DHT22;1840;48.892;15.312;2022-09-09T11:31:19;19.30;94.40
3648;DHT22;1840;48.892;15.312;2022-09-09T11:33:58;19.40;94.10
3648;DHT22;1840;48.892;15.312;2022-09-09T11:36:49;19.30;93.40
3648;DHT22;1840;48.892;15.312;2022-09-09T11:39:35;19.20;93.20
3648;DHT22;1840;48.892;15.312;2022-09-09T11:42:16;19.20;93.40
3648;DHT22;1840;48.892;15.312;2022-09-09T11:44:45;19.20;93.10
3648;DHT22;1840;48.892;15.312;2022-09-09T11:47:22;19.30;93.40
3648;DHT22;1840;48.892;15.312;2022-09-09T11:49:51;19.30;93.40
3648;DHT22;1840;48.892;15.312;2022-09-09T11:52:22;19.20;93.40
3648;DHT22;1840;48.892;15.312;2022-09-09T11:54:54;19.30;93.60
3648;DHT22;1840;48.892;15.312;2022-09-09T11:57:32;19.30;93.70
3648;DHT22;1840;48.892;15.312;2022-09-09T12:00:03;19.20;93.70
3648;DHT22;1840;48.892;15.312;2022-09-09T12:02:32;19.20;94.10
3648;DHT22;1840;48.892;15.312;2022-09-09T12:05:04;19.20;93.70
3648;DHT22;1840;48.892;15.312;2022-09-09T12:07:37;19.30;93.70
3648;DHT22;1840;48.892;15.312;2022-09-09T12:10:20;19.30;94.00
3648;DHT22;1840;48.892;15.312;2022-09-09T12:12:51;19.20;94.40
3648;DHT22;1840;48.892;15.312;2022-09-09T12:15:23;19.20;93.40
3648;DHT22;1840;48.892;15.312;2022-09-09T12:17:53;19.20;93.40
3648;DHT22;1840;48.892;15.312;2022-09-09T12:20:34;19.20;93.10
3648;DHT22;1840;48.892;15.312;2022-09-09T12:23:22;19.10;93.70
3648;DHT22;1840;48.892;15.312;2022-09-09T12:26:03;19.00;94.20
3648;DHT22;1840;48.892;15.312;2022-09-09T12:28:54;19.00;94.50
3648;DHT22;1840;48.892;15.312;2022-09-09T12:31:26;18.90;94.10
3648;DHT22;1840;48.892;15.312;2022-09-09T12:34:04;18.80;93.90
3648;DHT22;1840;48.892;15.312;2022-09-09T12:36:39;18.70;94.30
3648;DHT22;1840;48.892;15.312;2022-09-09T12:39:16;18.70;95.20
3648;DHT22;1840;48.892;15.312;2022-09-09T12:41:51;18.70;96.00
3648;DHT22;1840;48.892;15.312;2022-09-09T12:44:25;18.60;96.50
3648;DHT22;1840;48.892;15.312;2022-09-09T12:46:56;18.40;95.70
3648;DHT22;1840;48.892;15.312;2022-09-09T12:49:30;18.30;96.20
3648;DHT22;1840;48.892;15.312;2022-09-09T12:52:03;18.10;96.60
3648;DHT22;1840;48.892;15.312;2022-09-09T12:54:34;18.00;97.60
3648;DHT22;1840;48.892;15.312;2022-09-09T12:57:03;17.70;97.80
3648;DHT22;1840;48.892;15.312;2022-09-09T12:59:37;17.80;98.60
3648;DHT22;1840;48.892;15.312;2022-09-09T13:02:18;17.90;98.80
3648;DHT22;1840;48.892;15.312;2022-09-09T13:04:47;17.90;99.40
3648;DHT22;1840;48.892;15.312;2022-09-09T13:07:18;17.60;99.00
3648;DHT22;1840;48.892;15.312;2022-09-09T13:09:47;17.50;99.30
3648;DHT22;1840;48.892;15.312;2022-09-09T13:12:18;17.20;99.30
3648;DHT22;1840;48.892;15.312;2022-09-09T13:14:50;16.80;99.60
3648;DHT22;1840;48.892;15.312;2022-09-09T13:17:21;16.80;99.90
3648;DHT22;1840;48.892;15.312;2022-09-09T13:19:51;16.70;99.50
3648;DHT22;1840;48.892;15.312;2022-09-09T13:22:31;16.70;99.90
3648;DHT22;1840;48.892;15.312;2022-09-09T13:25:03;16.90;99.60
3648;DHT22;1840;48.892;15.312;2022-09-09T13:27:33;17.00;99.40
3648;DHT22;1840;48.892;15.312;2022-09-09T13:30:23;17.00;99.60
3648;DHT22;1840;48.892;15.312;2022-09-09T13:33:20;16.80;98.50
3648;DHT22;1840;48.892;15.312;2022-09-09T13:35:51;16.70;98.60
3648;DHT22;1840;48.892;15.312;2022-09-09T13:38:22;16.60;98.20
3648;DHT22;1840;48.892;15.312;2022-09-09T13:40:58;16.80;98.40
3648;DHT22;1840;48.892;15.312;2022-09-09T13:43:29;16.90;98.10
3648;DHT22;1840;48.892;15.312;2022-09-09T13:46:02;16.80;98.00
3648;DHT22;1840;48.892;15.312;2022-09-09T13:48:30;17.00;98.20
3648;DHT22;1840;48.892;15.312;2022-09-09T13:51:02;17.20;98.50
3648;DHT22;1840;48.892;15.312;2022-09-09T13:53:31;17.10;98.20
3648;DHT22;1840;48.892;15.312;2022-09-09T13:56:00;17.30;98.40
3648;DHT22;1840;48.892;15.312;2022-09-09T13:58:28;17.30;97.90
3648;DHT22;1840;48.892;15.312;2022-09-09T14:00:56;17.00;97.80
3648;DHT22;1840;48.892;15.312;2022-09-09T14:03:26;16.90;97.70
3648;DHT22;1840;48.892;15.312;2022-09-09T14:05:54;16.90;97.60
3648;DHT22;1840;48.892;15.312;2022-09-09T14:08:25;17.00;97.80
3648;DHT22;1840;48.892;15.312;2022-09-09T14:10:55;17.00;97.90
3648;DHT22;1840;48.892;15.312;2022-09-09T14:13:25;17.10;97.70
3648;DHT22;1840;48.892;15.312;2022-09-09T14:15:53;16.90;97.20
3648;DHT22;1840;48.892;15.312;2022-09-09T14:18:21;17.10;97.60
3648;DHT22;1840;48.892;15.312;2022-09-09T14:20:53;17.10;97.40
3648;DHT22;1840;48.892;15.312;2022-09-09T14:23:21;17.10;97.00
3648;DHT22;1840;48.892;15.312;2022-09-09T14:25:51;16.90;97.20
3648;DHT22;1840;48.892;15.312;2022-09-09T14:28:20;16.80;96.80
3648;DHT22;1840;48.892;15.312;2022-09-09T14:31:09;16.90;96.90
3648;DHT22;1840;48.892;15.312;2022-09-09T14:33:37;17.00;97.00
3648;DHT22;1840;48.892;15.312;2022-09-09T14:36:09;17.00;96.60
3648;DHT22;1840;48.892;15.312;2022-09-09T14:38:38;17.00;96.60
3648;DHT22;1840;48.892;15.312;2022-09-09T14:41:07;16.80;96.50
3648;DHT22;1840;48.892;15.312;2022-09-09T14:43:38;16.80;96.40
3648;DHT22;1840;48.892;15.312;2022-09-09T14:46:07;16.80;96.60
3648;DHT22;1840;48.892;15.312;2022-09-09T14:48:36;16.80;96.40
3648;DHT22;1840;48.892;15.312;2022-09-09T14:51:08;16.80;96.60
3648;DHT22;1840;48.892;15.312;2022-09-09T14:53:37;16.80;96.90
3648;DHT22;1840;48.892;15.312;2022-09-09T14:56:07;16.90;96.80
3648;DHT22;1840;48.892;15.312;2022-09-09T14:58:36;16.90;96.90
3648;DHT22;1840;48.892;15.312;2022-09-09T15:01:06;16.90;96.80
3648;DHT22;1840;48.892;15.312;2022-09-09T15:03:34;16.80;97.10
3648;DHT22;1840;48.892;15.312;2022-09-09T15:06:10;16.80;97.30
3648;DHT22;1840;48.892;15.312;2022-09-09T15:08:41;16.80;97.30
3648;DHT22;1840;48.892;15.312;2022-09-09T15:11:11;16.80;97.40
3648;DHT22;1840;48.892;15.312;2022-09-09T15:13:41;16.70;97.10
3648;DHT22;1840;48.892;15.312;2022-09-09T15:16:11;16.70;97.20
3648;DHT22;1840;48.892;15.312;2022-09-09T15:18:41;16.80;97.50
3648;DHT22;1840;48.892;15.312;2022-09-09T15:21:14;16.70;97.20
3648;DHT22;1840;48.892;15.312;2022-09-09T15:23:43;16.60;97.90
3648;DHT22;1840;48.892;15.312;2022-09-09T15:26:11;16.60;97.80
3648;DHT22;1840;48.892;15.312;2022-09-09T15:28:41;16.50;98.00
3648;DHT22;1840;48.892;15.312;2022-09-09T15:31:12;16.40;97.80
3648;DHT22;1840;48.892;15.312;2022-09-09T15:33:47;16.20;97.30
3648;DHT22;1840;48.892;15.312;2022-09-09T15:36:19;16.20;97.90
3648;DHT22;1840;48.892;15.312;2022-09-09T15:38:49;16.00;97.70
3648;DHT22;1840;48.892;15.312;2022-09-09T15:41:18;15.90;98.10
3648;DHT22;1840;48.892;15.312;2022-09-09T15:43:48;16.00;98.20
3648;DHT22;1840;48.892;15.312;2022-09-09T15:46:26;16.20;98.40
3648;DHT22;1840;48.892;15.312;2022-09-09T15:48:55;16.20;98.50
3648;DHT22;1840;48.892;15.312;2022-09-09T15:51:26;16.20;98.20
3648;DHT22;1840;48.892;15.312;2022-09-09T15:54:09;16.10;98.40
3648;DHT22;1840;48.892;15.312;2022-09-09T15:56:39;16.10;98.60
3648;DHT22;1840;48.892;15.312;2022-09-09T15:59:08;16.20;98.70
3648;DHT22;1840;48.892;15.312;2022-09-09T16:01:36;16.20;98.90
3648;DHT22;1840;48.892;15.312;2022-09-09T16:04:06;16.30;99.30
3648;DHT22;1840;48.892;15.312;2022-09-09T16:06:35;16.30;99.20
3648;DHT22;1840;48.892;15.312;2022-09-09T16:09:05;16.20;99.40
3648;DHT22;1840;48.892;15.312;2022-09-09T16:11:36;16.20;99.60
3648;DHT22;1840;48.892;15.312;2022-09-09T16:14:05;16.20;99.60
3648;DHT22;1840;48.892;15.312;2022-09-09T16:16:35;16.20;99.70
3648;DHT22;1840;48.892;15.312;2022-09-09T16:19:06;16.10;99.50
3648;DHT22;1840;48.892;15.312;2022-09-09T16:21:38;16.10;99.70
3648;DHT22;1840;48.892;15.312;2022-09-09T16:24:09;16.00;99.70
3648;DHT22;1840;48.892;15.312;2022-09-09T16:26:40;15.90;99.90
3648;DHT22;1840;48.892;15.312;2022-09-09T16:29:09;15.80;99.90